Time;durP1;ratioP1;P1;durP2;ratioP2;P2;SDS_P1;SDS_P2;PMS_P1;PMS_P2;Temp;Humidity;BMP_temperature;BMP_pressure;BME280_temperature;BME280_humidity;BME280_pressure;Samples;Min_cycle;Max_cycle;Signal;HPM_P1;HPM_P2
2022/01/26 00:06:21;;;;;;;47.40;25.83;;;3.20;1.00;;;;;;4982308;28;20223;-64
2022/01/26 00:08:51;;;;;;;45.97;25.97;;;3.20;1.00;;;;;;4956074;28;20682;-63
2022/01/26 00:11:18;;;;;;;48.43;26.23;;;3.20;1.00;;;;;;4948103;28;20268;-65
2022/01/26 00:13:45;;;;;;;46.50;25.00;;;3.10;1.00;;;;;;4965602;28;20695;-64
2022/01/26 00:16:26;;;;;;;43.70;24.73;;;3.10;1.00;;;;;;4966538;28;20202;-65
2022/01/26 00:18:57;;;;;;;42.63;23.73;;;3.10;1.00;;;;;;4949716;28;20972;-65
2022/01/26 00:39:45;;;;;;;45.40;24.87;;;3.10;1.00;;;;;;4980763;28;20289;-64
2022/01/26 00:42:15;;;;;;;45.00;24.77;;;3.20;1.00;;;;;;4951272;28;20200;-64
2022/01/26 00:44:47;;;;;;;47.03;26.53;;;3.10;1.00;;;;;;4969200;28;20253;-64
2022/01/26 00:47:15;;;;;;;46.93;25.13;;;3.10;5.60;;;;;;4965048;28;20222;-64
2022/01/26 00:49:42;;;;;;;47.90;25.57;;;3.00;1.00;;;;;;4995867;28;20216;-64
2022/01/26 00:52:14;;;;;;;44.47;25.53;;;3.00;1.00;;;;;;4982480;28;20202;-64
2022/01/26 00:54:43;;;;;;;50.93;26.33;;;2.90;8.80;;;;;;4981177;28;20214;-65
2022/01/26 00:57:10;;;;;;;44.27;24.80;;;3.00;22.50;;;;;;4951906;28;20201;-64
2022/01/26 00:59:39;;;;;;;45.23;24.73;;;2.90;27.80;;;;;;4962258;28;20202;-64
2022/01/26 01:02:06;;;;;;;45.30;25.40;;;2.90;4.70;;;;;;4979624;28;20309;-64
2022/01/26 01:04:36;;;;;;;46.20;25.83;;;2.90;21.30;;;;;;4964219;28;20214;-64
2022/01/26 01:07:05;;;;;;;45.73;24.73;;;2.90;29.00;;;;;;4959312;28;20209;-64
2022/01/26 01:09:34;;;;;;;45.37;25.17;;;2.80;92.70;;;;;;4951170;28;20260;-64
2022/01/26 01:12:03;;;;;;;49.13;25.53;;;2.80;99.90;;;;;;4980614;28;20197;-64
2022/01/26 01:14:35;;;;;;;43.87;25.07;;;2.80;96.30;;;;;;4974940;28;20234;-64
2022/01/26 01:17:05;;;;;;;44.13;24.93;;;2.80;99.90;;;;;;4965758;28;20213;-64
2022/01/26 01:19:44;;;;;;;44.50;24.53;;;2.80;99.90;;;;;;4969090;28;20285;-64
2022/01/26 01:30:45;;;;;;;44.20;24.40;;;2.90;99.90;;;;;;4962511;28;21034;-64
2022/01/26 01:33:19;;;;;;;47.57;24.43;;;2.90;99.90;;;;;;4964710;28;20282;-64
2022/01/26 01:35:47;;;;;;;47.23;24.93;;;2.90;99.90;;;;;;4943953;28;20204;-65
2022/01/26 01:38:20;;;;;;;48.63;25.93;;;2.90;36.30;;;;;;4944857;28;20198;-64
2022/01/26 01:40:49;;;;;;;46.40;24.57;;;2.90;60.70;;;;;;4950681;28;21139;-64
2022/01/26 01:43:20;;;;;;;45.17;26.33;;;2.80;63.80;;;;;;4950573;28;20228;-64
2022/01/26 01:45:51;;;;;;;47.43;23.67;;;2.80;99.90;;;;;;4958281;28;20258;-64
2022/01/26 01:48:23;;;;;;;52.47;26.50;;;2.80;99.90;;;;;;4966771;28;20289;-65
2022/01/26 01:50:56;;;;;;;47.67;25.90;;;2.80;99.90;;;;;;4964579;28;20186;-64
2022/01/26 01:53:31;;;;;;;51.23;25.27;;;2.80;99.90;;;;;;4944864;28;20206;-64
2022/01/26 01:56:00;;;;;;;48.30;26.47;;;2.80;99.90;;;;;;4966205;28;20194;-64
2022/01/26 01:58:28;;;;;;;49.33;26.07;;;2.80;99.90;;;;;;4966392;28;20712;-65
2022/01/26 02:00:56;;;;;;;45.60;25.70;;;2.80;99.90;;;;;;4956423;28;20205;-65
2022/01/26 02:03:24;;;;;;;51.43;25.83;;;2.70;99.90;;;;;;4966512;28;20206;-65
2022/01/26 02:05:52;;;;;;;49.13;25.40;;;2.70;99.90;;;;;;4948292;28;20234;-64
2022/01/26 02:08:19;;;;;;;50.67;26.93;;;2.70;99.90;;;;;;4949869;28;20254;-65
2022/01/26 02:10:46;;;;;;;43.90;25.03;;;2.70;99.90;;;;;;4947059;28;20202;-64
2022/01/26 02:13:27;;;;;;;49.93;26.60;;;2.70;99.90;;;;;;4970147;28;20749;-64
2022/01/26 02:19:21;;;;;;;45.10;25.03;;;2.70;99.90;;;;;;4971877;28;20205;-64
2022/01/26 02:51:50;;;;;;;42.53;24.23;;;2.80;99.90;;;;;;4984106;28;20673;-65
2022/01/26 03:04:57;;;;;;;40.30;23.90;;;2.80;99.90;;;;;;4986007;28;20209;-64
2022/01/26 03:07:23;;;;;;;44.33;25.33;;;2.80;99.90;;;;;;4978252;28;20316;-64
2022/01/26 03:10:03;;;;;;;43.17;25.10;;;2.80;99.90;;;;;;4984765;28;20296;-65
2022/01/26 03:12:42;;;;;;;43.70;24.40;;;2.70;99.90;;;;;;4981266;28;20198;-64
2022/01/26 03:15:18;;;;;;;44.90;25.40;;;2.70;99.90;;;;;;4965498;28;20302;-64
2022/01/26 03:20:16;;;;;;;45.73;25.33;;;2.70;99.90;;;;;;4982937;28;20678;-64
2022/01/26 03:28:39;;;;;;;49.53;26.40;;;2.70;99.90;;;;;;4975440;28;20229;-65
2022/01/26 03:36:45;;;;;;;48.37;26.57;;;2.60;99.90;;;;;;4966839;28;20213;-64
2022/01/26 03:39:19;;;;;;;45.67;26.60;;;2.70;99.90;;;;;;4966402;28;20205;-65
2022/01/26 03:41:50;;;;;;;45.07;26.73;;;2.70;99.90;;;;;;4966811;28;20293;-65
2022/01/26 03:44:17;;;;;;;49.10;26.07;;;2.70;99.90;;;;;;4982044;28;20197;-66
2022/01/26 03:46:48;;;;;;;49.23;28.30;;;2.80;99.90;;;;;;4962725;28;20202;-66
2022/01/26 03:49:16;;;;;;;49.70;28.83;;;2.70;99.90;;;;;;4965397;28;20317;-65
2022/01/26 03:51:43;;;;;;;49.77;27.90;;;2.70;99.90;;;;;;4966027;28;20201;-65
2022/01/26 03:54:11;;;;;;;53.13;28.93;;;2.70;99.90;;;;;;4967158;28;20800;-65
2022/01/26 03:56:38;;;;;;;56.33;28.00;;;2.80;99.90;;;;;;4963308;28;20210;-66
2022/01/26 03:59:06;;;;;;;54.00;29.53;;;2.80;99.90;;;;;;4979933;28;20743;-66
2022/01/26 04:01:34;;;;;;;57.10;27.87;;;2.80;99.90;;;;;;4981392;28;20190;-65
2022/01/26 04:04:02;;;;;;;56.87;28.97;;;2.80;99.90;;;;;;4966989;28;20240;-65
2022/01/26 04:06:31;;;;;;;60.07;29.23;;;3.80;99.90;;;;;;4949663;28;20324;-65
2022/01/26 04:09:00;;;;;;;53.77;29.60;;;2.90;99.90;;;;;;4969520;28;20300;-65
2022/01/26 04:11:42;;;;;;;59.80;31.00;;;2.80;99.90;;;;;;4969881;28;20638;-65
2022/01/26 04:14:16;;;;;;;53.80;29.40;;;2.90;99.90;;;;;;4967219;28;20229;-64
2022/01/26 04:16:44;;;;;;;63.23;30.87;;;2.90;99.90;;;;;;4981691;28;20197;-63
2022/01/26 04:19:11;;;;;;;70.87;32.97;;;2.90;99.90;;;;;;4966222;28;20209;-63
2022/01/26 04:24:18;;;;;;;64.23;31.23;;;2.90;99.90;;;;;;4979668;28;20206;-63
2022/01/26 04:27:35;;;;;;;63.50;33.33;;;2.90;99.90;;;;;;4964460;28;20280;-63
2022/01/26 04:29:35;;;;;;;62.17;30.00;;;3.00;99.90;;;;;;4956313;28;20762;-63
2022/01/26 04:32:05;;;;;;;65.57;32.23;;;3.00;99.90;;;;;;4981542;28;20206;-63
2022/01/26 04:34:34;;;;;;;59.17;31.80;;;3.00;99.90;;;;;;4986032;28;20637;-63
2022/01/26 04:37:18;;;;;;;60.63;30.10;;;3.00;99.90;;;;;;4986626;28;20209;-67
2022/01/26 04:39:52;;;;;;;58.90;29.70;;;3.00;99.90;;;;;;4981537;28;20214;-62
2022/01/26 04:45:08;;;;;;;62.70;32.27;;;3.00;99.90;;;;;;4979486;28;20252;-63
2022/01/26 04:47:37;;;;;;;71.93;32.80;;;3.00;99.90;;;;;;4965237;28;21127;-64
2022/01/26 04:50:06;;;;;;;69.90;34.17;;;3.10;99.90;;;;;;4983731;28;20230;-64
2022/01/26 04:52:36;;;;;;;76.07;36.43;;;3.10;99.90;;;;;;4967598;28;20683;-65
2022/01/26 04:55:03;;;;;;;82.00;37.53;;;3.00;99.90;;;;;;4982174;28;20181;-65
2022/01/26 04:57:30;;;;;;;79.00;38.83;;;3.10;99.90;;;;;;4964747;28;20320;-65
2022/01/26 04:59:57;;;;;;;84.83;37.27;;;3.10;99.90;;;;;;4983215;28;20288;-65
2022/01/26 05:02:24;;;;;;;92.43;39.53;;;3.00;99.90;;;;;;4981829;28;20979;-64
2022/01/26 05:04:51;;;;;;;95.27;41.77;;;3.00;99.90;;;;;;4964536;28;20642;-64
2022/01/26 05:07:18;;;;;;;95.53;40.70;;;3.00;99.90;;;;;;4943710;28;20225;-63
2022/01/26 05:09:45;;;;;;;92.13;40.47;;;3.00;99.90;;;;;;4962223;28;20273;-63
2022/01/26 05:12:13;;;;;;;91.23;39.90;;;3.00;99.90;;;;;;4976494;28;20547;-62
2022/01/26 05:14:43;;;;;;;100.60;43.03;;;3.10;99.90;;;;;;4979569;28;20267;-63
2022/01/26 05:17:12;;;;;;;108.37;45.27;;;3.10;99.90;;;;;;4953118;28;20225;-63
2022/01/26 05:19:39;;;;;;;107.20;45.40;;;3.10;99.90;;;;;;4969455;28;20207;-64
2022/01/26 05:22:07;;;;;;;107.50;47.03;;;3.10;81.10;;;;;;4969883;28;20201;-63
2022/01/26 05:24:33;;;;;;;107.97;47.27;;;3.10;65.30;;;;;;4969544;28;20198;-63
2022/01/26 05:27:01;;;;;;;102.57;45.47;;;3.10;19.50;;;;;;4966218;28;20832;-64
2022/01/26 05:29:27;;;;;;;114.20;49.43;;;3.10;1.00;;;;;;4964967;28;20232;-65
2022/01/26 05:31:56;;;;;;;119.67;49.73;;;3.00;1.00;;;;;;4978374;28;20294;-67
2022/01/26 05:34:23;;;;;;;114.93;49.00;;;3.00;1.00;;;;;;4964200;28;20212;-65
2022/01/26 05:36:50;;;;;;;112.57;48.13;;;3.00;1.00;;;;;;4962532;28;20248;-64
2022/01/26 05:39:17;;;;;;;112.77;49.23;;;3.10;1.00;;;;;;4962630;28;20233;-65
2022/01/26 05:41:44;;;;;;;108.57;47.03;;;3.00;1.00;;;;;;4944734;28;20220;-64
2022/01/26 05:44:11;;;;;;;121.10;50.03;;;3.10;1.00;;;;;;4976564;28;20301;-64
2022/01/26 05:46:43;;;;;;;122.70;51.70;;;3.00;1.00;;;;;;4965923;28;20237;-65
2022/01/26 05:49:13;;;;;;;128.67;52.00;;;3.00;1.00;;;;;;4978339;28;20353;-63
2022/01/26 05:51:43;;;;;;;118.80;49.87;;;3.00;1.00;;;;;;4980461;28;20215;-63
2022/01/26 05:54:11;;;;;;;119.73;51.07;;;3.00;1.00;;;;;;4969274;28;20229;-64
2022/01/26 05:56:38;;;;;;;129.17;51.97;;;3.00;1.00;;;;;;4963414;28;20213;-64
2022/01/26 05:59:11;;;;;;;127.80;51.93;;;3.00;1.00;;;;;;4949407;28;20696;-64
2022/01/26 06:01:40;;;;;;;122.07;49.33;;;2.90;1.00;;;;;;4968282;28;20205;-64
2022/01/26 06:04:07;;;;;;;132.33;53.23;;;2.90;1.00;;;;;;4953162;28;20290;-64
2022/01/26 06:06:34;;;;;;;127.87;54.10;;;2.90;1.00;;;;;;4949256;28;20205;-63
2022/01/26 06:09:04;;;;;;;120.37;52.50;;;2.90;1.00;;;;;;4980501;28;20694;-64
2022/01/26 06:11:31;;;;;;;125.80;51.50;;;2.90;1.00;;;;;;4977184;28;20190;-64
2022/01/26 06:13:58;;;;;;;122.07;51.67;;;3.00;1.00;;;;;;4974792;28;20244;-64
2022/01/26 06:16:27;;;;;;;134.53;50.23;;;3.00;1.00;;;;;;4957061;28;20199;-64
2022/01/26 06:18:54;;;;;;;132.87;52.97;;;2.90;1.00;;;;;;4939974;28;20317;-64
2022/01/26 06:21:21;;;;;;;127.30;51.33;;;2.90;1.00;;;;;;4949810;28;20646;-64
2022/01/26 06:23:48;;;;;;;140.03;53.57;;;2.90;1.00;;;;;;4927664;28;20301;-64
2022/01/26 06:26:18;;;;;;;127.17;50.77;;;2.90;1.00;;;;;;4949387;28;20218;-64
2022/01/26 06:28:47;;;;;;;122.20;52.27;;;2.80;1.00;;;;;;4957872;28;20226;-64
2022/01/26 06:31:16;;;;;;;131.17;53.87;;;2.90;1.00;;;;;;4953572;28;20273;-64
2022/01/26 06:33:49;;;;;;;128.03;51.83;;;2.90;1.00;;;;;;4958651;28;20219;-64
2022/01/26 06:36:16;;;;;;;118.57;52.87;;;2.80;1.00;;;;;;4942614;28;20277;-63
2022/01/26 06:38:46;;;;;;;115.17;52.07;;;2.90;1.00;;;;;;4944610;28;20201;-64
2022/01/26 06:41:14;;;;;;;118.17;51.83;;;2.90;1.00;;;;;;4948991;28;20199;-64
2022/01/26 06:43:51;;;;;;;121.37;53.23;;;2.90;1.00;;;;;;4958566;28;20199;-65
2022/01/26 06:46:38;;;;;;;121.90;50.83;;;2.90;1.00;;;;;;4946340;28;20202;-64
2022/01/26 06:51:56;;;;;;;118.43;50.07;;;2.90;1.00;;;;;;4961960;28;20203;-64
2022/01/26 06:54:23;;;;;;;120.10;52.27;;;2.80;1.00;;;;;;4930544;28;20654;-64
2022/01/26 06:56:50;;;;;;;118.67;50.40;;;2.80;1.00;;;;;;4942766;28;20222;-64
2022/01/26 06:59:24;;;;;;;113.97;49.27;;;2.80;1.00;;;;;;4942094;28;20548;-64
2022/01/26 07:01:52;;;;;;;125.03;50.80;;;2.80;1.00;;;;;;4934677;28;20238;-65
2022/01/26 07:04:19;;;;;;;122.13;51.40;;;2.80;1.00;;;;;;4945984;28;20213;-65
2022/01/26 07:06:46;;;;;;;120.47;50.70;;;2.80;1.00;;;;;;4967001;28;20292;-66
2022/01/26 07:09:13;;;;;;;118.70;51.60;;;2.80;1.00;;;;;;4960775;28;20252;-65
2022/01/26 07:11:40;;;;;;;117.70;49.40;;;2.80;1.00;;;;;;4952624;28;20203;-65
2022/01/26 07:14:09;;;;;;;121.53;49.00;;;2.80;1.00;;;;;;4964686;28;20226;-65
2022/01/26 07:22:08;;;;;;;125.80;52.07;;;2.80;1.00;;;;;;4963009;28;20198;-64
2022/01/26 07:24:37;;;;;;;121.33;48.90;;;2.80;1.00;;;;;;4966551;28;20244;-64
2022/01/26 07:27:04;;;;;;;117.73;49.23;;;2.80;1.00;;;;;;4965240;28;20625;-65
2022/01/26 07:29:32;;;;;;;121.47;49.60;;;2.80;1.00;;;;;;4979889;28;20308;-65
2022/01/26 07:31:59;;;;;;;124.87;49.67;;;2.90;1.00;;;;;;4961611;28;20225;-64
2022/01/26 07:34:26;;;;;;;123.43;49.87;;;2.80;1.00;;;;;;4954756;28;20218;-64
2022/01/26 07:36:59;;;;;;;117.53;49.37;;;2.90;1.00;;;;;;4980605;28;20406;-64
2022/01/26 07:42:28;;;;;;;108.70;46.83;;;2.80;1.00;;;;;;4910015;29;20264;-66
2022/01/26 07:44:59;;;;;;;116.50;46.23;;;2.80;1.00;;;;;;4964139;28;20210;-66
2022/01/26 07:47:26;;;;;;;115.50;49.20;;;2.80;1.00;;;;;;4980657;28;20221;-65
2022/01/26 07:49:56;;;;;;;112.80;47.20;;;2.80;1.00;;;;;;4982692;28;20214;-65
2022/01/26 07:52:24;;;;;;;114.50;46.13;;;2.70;1.00;;;;;;4969624;28;20261;-65
2022/01/26 07:54:53;;;;;;;112.17;46.93;;;2.70;1.00;;;;;;4961676;28;20699;-65
2022/01/26 07:57:25;;;;;;;112.53;46.57;;;2.70;1.00;;;;;;4982099;28;20201;-64
2022/01/26 07:59:53;;;;;;;108.03;44.60;;;2.70;1.00;;;;;;4980877;28;20683;-65
2022/01/26 08:02:21;;;;;;;116.53;47.93;;;2.70;1.00;;;;;;4967540;28;20617;-65
2022/01/26 08:04:48;;;;;;;111.83;46.60;;;2.70;1.00;;;;;;4968620;28;20202;-64
2022/01/26 08:07:15;;;;;;;116.97;49.30;;;2.70;1.00;;;;;;4980460;28;20239;-65
2022/01/26 08:09:45;;;;;;;116.40;45.13;;;2.70;1.00;;;;;;4948936;28;20226;-63
2022/01/26 08:12:21;;;;;;;109.97;45.57;;;2.70;1.00;;;;;;4970935;28;20654;-65
2022/01/26 08:15:08;;;;;;;122.40;48.63;;;2.70;1.00;;;;;;4979571;28;20426;-64
2022/01/26 08:17:39;;;;;;;114.00;47.07;;;2.70;1.00;;;;;;4980509;28;20619;-64
2022/01/26 08:20:10;;;;;;;116.87;45.00;;;2.60;1.00;;;;;;4981198;28;20194;-64
2022/01/26 08:22:40;;;;;;;113.83;45.40;;;2.70;1.00;;;;;;4980748;28;20197;-64
2022/01/26 08:25:10;;;;;;;114.60;45.50;;;2.70;1.00;;;;;;4963618;28;20296;-66
2022/01/26 08:27:41;;;;;;;108.00;43.60;;;2.70;1.00;;;;;;4970140;28;20269;-64
2022/01/26 08:30:14;;;;;;;113.07;46.73;;;2.70;1.00;;;;;;4950291;28;20293;-64
2022/01/26 08:32:41;;;;;;;111.17;45.17;;;2.70;1.00;;;;;;4970926;28;20202;-65
2022/01/26 08:35:09;;;;;;;117.87;46.93;;;2.80;1.00;;;;;;4970952;28;20229;-63
2022/01/26 08:37:38;;;;;;;111.13;45.80;;;2.80;1.00;;;;;;4982225;28;20277;-65
2022/01/26 08:40:08;;;;;;;117.63;46.83;;;2.80;1.00;;;;;;4965939;28;20248;-63
2022/01/26 08:42:37;;;;;;;112.83;45.07;;;2.70;1.00;;;;;;4964382;28;20243;-64
2022/01/26 08:45:06;;;;;;;107.73;45.23;;;2.80;1.00;;;;;;4969505;28;20294;-65
2022/01/26 08:47:36;;;;;;;111.67;45.47;;;2.80;1.00;;;;;;4968166;28;20207;-64
2022/01/26 08:50:04;;;;;;;110.67;44.70;;;2.80;1.00;;;;;;4971718;28;20215;-65
2022/01/26 08:52:31;;;;;;;103.83;44.70;;;2.80;1.00;;;;;;4970489;28;20201;-66
2022/01/26 08:55:01;;;;;;;115.17;47.50;;;2.80;1.00;;;;;;4963444;28;20805;-64
2022/01/26 08:57:31;;;;;;;111.13;46.67;;;2.90;1.00;;;;;;4965775;28;20205;-65
2022/01/26 09:00:01;;;;;;;113.70;47.03;;;2.90;1.00;;;;;;4960753;28;20211;-64
2022/01/26 09:02:27;;;;;;;101.77;45.23;;;2.90;1.00;;;;;;4986852;28;20294;-65
2022/01/26 09:04:55;;;;;;;114.87;46.07;;;3.00;1.00;;;;;;4964510;28;20637;-65
2022/01/26 09:07:22;;;;;;;121.67;47.73;;;3.00;1.00;;;;;;4976892;28;20198;-64
2022/01/26 09:09:55;;;;;;;114.47;47.67;;;2.90;1.00;;;;;;4971433;28;20300;-64
2022/01/26 09:12:24;;;;;;;108.87;45.27;;;3.00;1.00;;;;;;4968008;28;20304;-65
2022/01/26 09:14:52;;;;;;;123.27;48.50;;;3.00;1.00;;;;;;4964728;28;20381;-65
2022/01/26 09:17:20;;;;;;;109.77;45.53;;;3.00;1.00;;;;;;4957359;28;20213;-65
2022/01/26 09:19:48;;;;;;;124.13;51.33;;;3.00;1.00;;;;;;4977017;28;20194;-64
2022/01/26 09:22:17;;;;;;;121.33;51.07;;;3.00;1.00;;;;;;4960770;28;20392;-64
2022/01/26 09:24:47;;;;;;;138.93;55.77;;;3.00;1.00;;;;;;4969142;28;20300;-66
2022/01/26 09:27:16;;;;;;;124.77;49.10;;;3.00;1.00;;;;;;4969183;28;20232;-65
2022/01/26 09:29:46;;;;;;;122.83;49.73;;;3.00;1.00;;;;;;4961142;28;20276;-64
2022/01/26 09:32:14;;;;;;;121.63;49.73;;;3.00;1.00;;;;;;4965110;28;20194;-65
2022/01/26 09:34:44;;;;;;;124.10;46.60;;;3.10;1.00;;;;;;4948475;28;20226;-65
2022/01/26 09:37:14;;;;;;;118.50;48.57;;;3.20;1.00;;;;;;4945763;28;20225;-64
2022/01/26 09:39:43;;;;;;;122.77;48.17;;;3.10;1.00;;;;;;4963236;28;20228;-63
2022/01/26 09:42:13;;;;;;;114.13;46.77;;;3.10;1.00;;;;;;4978178;28;20225;-64
2022/01/26 09:44:40;;;;;;;125.87;48.07;;;3.20;1.00;;;;;;4962055;28;20696;-65
2022/01/26 09:47:09;;;;;;;122.90;51.37;;;3.20;1.00;;;;;;4962261;28;20202;-64
2022/01/26 09:49:37;;;;;;;132.77;52.30;;;3.20;1.00;;;;;;4961313;28;20217;-65
2022/01/26 09:52:17;;;;;;;119.47;48.53;;;3.20;1.00;;;;;;4983948;28;20709;-65
2022/01/26 09:54:44;;;;;;;141.70;54.87;;;3.20;1.00;;;;;;4964579;28;20197;-64
2022/01/26 09:57:24;;;;;;;118.47;49.00;;;3.30;1.00;;;;;;4979170;28;20671;-64
2022/01/26 09:59:51;;;;;;;131.40;53.07;;;3.30;1.00;;;;;;4946501;28;20213;-64
2022/01/26 10:02:28;;;;;;;126.07;50.50;;;3.30;1.00;;;;;;4963303;28;20568;-65
2022/01/26 10:05:07;;;;;;;119.77;49.67;;;3.30;1.00;;;;;;4978281;28;20193;-64
2022/01/26 10:18:57;;;;;;;130.67;51.53;;;3.30;1.00;;;;;;4936160;28;20210;-64
2022/01/26 10:21:25;;;;;;;122.53;52.57;;;3.30;1.00;;;;;;4975819;28;20209;-64
2022/01/26 10:23:54;;;;;;;131.00;51.87;;;3.30;1.00;;;;;;4943795;28;20244;-64
2022/01/26 10:26:21;;;;;;;131.20;50.07;;;3.40;1.00;;;;;;4996188;28;20216;-64
2022/01/26 10:28:54;;;;;;;131.30;52.30;;;3.30;1.00;;;;;;5001814;28;20232;-63
2022/01/26 10:31:25;;;;;;;134.67;52.80;;;3.30;1.00;;;;;;4994485;28;20277;-63
2022/01/26 10:34:10;;;;;;;136.70;52.30;;;3.40;1.00;;;;;;4989733;28;20196;-63
2022/01/26 10:36:43;;;;;;;127.60;50.87;;;3.40;1.00;;;;;;5003576;28;20191;-63
2022/01/26 10:39:12;;;;;;;129.40;52.33;;;3.30;1.00;;;;;;4993529;28;20197;-63
2022/01/26 10:41:42;;;;;;;137.33;52.47;;;3.30;1.00;;;;;;4998851;28;20209;-65
2022/01/26 10:44:09;;;;;;;136.83;52.23;;;3.30;1.00;;;;;;4998910;28;20225;-65
2022/01/26 10:46:40;;;;;;;131.97;52.17;;;3.40;1.00;;;;;;4988248;28;20204;-64
2022/01/26 10:54:34;;;;;;;138.23;52.73;;;3.60;1.00;;;;;;5001758;28;20716;-64
2022/01/26 10:57:06;;;;;;;137.23;49.33;;;3.50;1.00;;;;;;4995760;28;20328;-63
2022/01/26 10:59:47;;;;;;;146.67;54.53;;;3.50;1.00;;;;;;4985170;28;20531;-64
2022/01/26 11:02:20;;;;;;;132.23;50.60;;;3.40;1.00;;;;;;4983854;28;20614;-63
2022/01/26 11:04:52;;;;;;;143.87;54.67;;;3.50;1.00;;;;;;4985402;28;20288;-64
2022/01/26 11:07:29;;;;;;;144.70;56.07;;;3.50;1.00;;;;;;4987605;28;20209;-64
2022/01/26 11:10:05;;;;;;;144.03;54.33;;;3.40;14.90;;;;;;4983985;28;20205;-64
2022/01/26 11:12:33;;;;;;;145.67;54.77;;;3.40;30.00;;;;;;4982782;28;20223;-63
2022/01/26 11:15:05;;;;;;;144.97;53.33;;;3.30;99.90;;;;;;4967722;28;20240;-64
2022/01/26 11:17:37;;;;;;;144.40;51.30;;;3.40;53.80;;;;;;4987542;28;20215;-63
2022/01/26 11:20:20;;;;;;;149.07;52.63;;;3.40;64.00;;;;;;4983635;28;20605;-65
2022/01/26 11:22:59;;;;;;;138.73;49.93;;;3.40;91.10;;;;;;4998967;28;20236;-64
2022/01/26 11:25:28;;;;;;;142.90;52.77;;;3.40;99.90;;;;;;4981040;28;20224;-63
2022/01/26 11:27:57;;;;;;;142.50;52.83;;;3.50;99.90;;;;;;4996947;28;20284;-64
2022/01/26 11:30:31;;;;;;;135.90;51.97;;;3.60;99.90;;;;;;4998546;28;20641;-62
2022/01/26 11:33:14;;;;;;;148.33;51.43;;;3.50;87.60;;;;;;4983441;28;20639;-63
2022/01/26 11:35:49;;;;;;;143.07;52.60;;;3.50;99.90;;;;;;4985930;28;20258;-66
2022/01/26 11:38:29;;;;;;;146.03;52.13;;;3.70;99.90;;;;;;4987163;28;20306;-65
2022/01/26 11:46:36;;;;;;;134.87;50.10;;;3.60;99.90;;;;;;4998858;28;20259;-64
2022/01/26 11:49:10;;;;;;;140.57;50.27;;;3.70;99.90;;;;;;4982979;28;21836;-63
2022/01/26 11:51:52;;;;;;;144.33;50.47;;;3.70;99.90;;;;;;4991580;28;20207;-64
2022/01/26 11:54:22;;;;;;;144.63;52.23;;;3.70;99.90;;;;;;4999206;28;20205;-63
2022/01/26 11:57:05;;;;;;;142.83;51.50;;;3.70;99.90;;;;;;4963162;28;20292;-64
2022/01/26 11:59:34;;;;;;;133.77;48.50;;;3.70;99.90;;;;;;4987646;28;20239;-64
2022/01/26 12:02:20;;;;;;;142.23;50.50;;;3.70;99.90;;;;;;4999753;28;20209;-64
2022/01/26 12:05:05;;;;;;;134.43;48.93;;;3.70;99.90;;;;;;4998924;28;20201;-66
2022/01/26 12:07:33;;;;;;;151.27;51.47;;;3.70;99.90;;;;;;4979928;28;20215;-64
2022/01/26 12:10:03;;;;;;;143.40;50.37;;;3.60;99.90;;;;;;4979455;28;20911;-65
2022/01/26 12:12:35;;;;;;;134.17;50.83;;;3.60;99.90;;;;;;4971430;28;20212;-65
2022/01/26 12:15:08;;;;;;;133.13;50.30;;;3.70;99.90;;;;;;4978918;28;20676;-64
2022/01/26 12:17:40;;;;;;;146.13;53.33;;;3.70;99.90;;;;;;4999351;28;20239;-64
2022/01/26 12:34:39;;;;;;;144.13;52.77;;;3.70;99.90;;;;;;4978515;28;20205;-65
2022/01/26 12:37:16;;;;;;;150.97;55.30;;;3.70;99.90;;;;;;4993435;28;20197;-64
2022/01/26 12:45:23;;;;;;;146.57;52.17;;;3.80;99.90;;;;;;4984745;28;20202;-64
2022/01/26 12:47:51;;;;;;;161.97;56.53;;;3.90;99.90;;;;;;4979348;28;20254;-64
2022/01/26 12:50:19;;;;;;;154.40;52.00;;;3.80;99.90;;;;;;4980340;28;20799;-64
2022/01/26 12:52:47;;;;;;;139.87;51.73;;;4.00;99.90;;;;;;4996193;28;20660;-64
2022/01/26 12:55:21;;;;;;;148.60;53.83;;;3.90;99.90;;;;;;4994260;28;20217;-65
2022/01/26 12:57:48;;;;;;;142.50;51.90;;;3.90;99.90;;;;;;4991108;28;20727;-65
2022/01/26 13:00:19;;;;;;;144.27;52.77;;;4.00;99.90;;;;;;4996161;28;20248;-64
2022/01/26 13:02:45;;;;;;;123.37;47.03;;;4.00;99.90;;;;;;4978899;28;20251;-64
2022/01/26 13:05:15;;;;;;;136.80;50.83;;;4.00;99.90;;;;;;4983832;28;20208;-65
2022/01/26 13:07:43;;;;;;;135.37;50.03;;;3.90;99.90;;;;;;4999268;28;20232;-64
2022/01/26 13:10:17;;;;;;;135.73;49.73;;;3.90;99.90;;;;;;4984814;28;20221;-67
2022/01/26 13:12:43;;;;;;;128.50;49.20;;;3.80;99.90;;;;;;4983494;28;20217;-65
2022/01/26 13:15:22;;;;;;;134.40;49.53;;;3.90;99.90;;;;;;4998213;28;20267;-65
2022/01/26 13:17:58;;;;;;;131.47;48.87;;;3.80;99.90;;;;;;4993896;28;20217;-64
2022/01/26 13:23:23;;;;;;;129.87;48.27;;;3.80;99.90;;;;;;4981627;28;20205;-65
2022/01/26 13:37:49;;;;;;;117.20;44.07;;;3.90;99.90;;;;;;4991120;28;20281;-65
2022/01/26 13:43:25;;;;;;;103.47;42.53;;;3.90;99.90;;;;;;4994548;28;21066;-65
2022/01/26 13:51:16;;;;;;;107.93;41.57;;;3.90;99.90;;;;;;4993988;28;20211;-64
2022/01/26 13:54:09;;;;;;;99.90;40.00;;;3.90;99.90;;;;;;4985940;28;20201;-65
2022/01/26 13:56:51;;;;;;;93.30;37.10;;;3.90;99.90;;;;;;4998805;28;20300;-65
2022/01/26 14:01:49;;;;;;;95.23;38.80;;;4.00;99.90;;;;;;4994720;28;20296;-65
2022/01/26 14:04:20;;;;;;;90.17;39.93;;;4.00;99.90;;;;;;4984122;28;20251;-65
2022/01/26 14:06:48;;;;;;;97.10;38.60;;;3.90;99.90;;;;;;4980154;28;20200;-65
2022/01/26 14:09:15;;;;;;;98.37;40.07;;;3.90;99.90;;;;;;4978673;28;20240;-65
2022/01/26 14:11:48;;;;;;;107.30;42.10;;;3.90;99.90;;;;;;5000033;28;20233;-65
2022/01/26 14:14:24;;;;;;;104.10;41.10;;;3.90;99.90;;;;;;4969803;28;20332;-65
2022/01/26 14:17:00;;;;;;;101.70;39.80;;;3.90;99.90;;;;;;4985564;28;21197;-66
2022/01/26 14:27:50;;;;;;;91.80;38.13;;;3.80;99.90;;;;;;4998760;28;20352;-66
2022/01/26 15:30:43;;;;;;;84.27;34.60;;;3.80;99.90;;;;;;5000293;28;20627;-66
2022/01/26 15:41:39;;;;;;;74.60;31.57;;;3.70;99.90;;;;;;4989926;28;20287;-66
2022/01/26 18:16:47;;;;;;;103.57;41.37;;;3.50;1.00;;;;;;4995329;28;20205;-65
2022/01/26 18:32:58;;;;;;;109.30;40.97;;;3.50;1.00;;;;;;4976067;28;20308;-65
2022/01/26 18:51:48;;;;;;;109.27;38.87;;;3.50;1.00;;;;;;4980588;28;20302;-65
2022/01/26 18:54:17;;;;;;;89.50;37.43;;;3.40;1.00;;;;;;4996144;28;20205;-65
2022/01/26 18:56:46;;;;;;;104.80;39.63;;;3.40;1.00;;;;;;4970704;28;20240;-65
2022/01/26 18:59:14;;;;;;;97.80;39.57;;;3.50;1.00;;;;;;4997293;28;20618;-65
2022/01/26 19:01:45;;;;;;;99.47;38.00;;;3.40;1.00;;;;;;4999596;28;20658;-65
2022/01/26 19:04:40;;;;;;;107.67;41.60;;;3.40;1.00;;;;;;5002462;28;20205;-65
2022/01/26 19:07:08;;;;;;;93.47;38.13;;;3.40;1.00;;;;;;4985196;28;20750;-66
2022/01/26 19:09:40;;;;;;;104.47;41.73;;;3.40;1.00;;;;;;4980635;28;20209;-67
2022/01/26 19:12:14;;;;;;;99.07;40.07;;;3.40;1.00;;;;;;4986904;28;20224;-65
2022/01/26 19:14:48;;;;;;;103.00;41.00;;;3.40;1.00;;;;;;4988448;28;20701;-65
2022/01/26 19:19:58;;;;;;;93.90;38.70;;;3.40;1.00;;;;;;4979915;28;20259;-65
2022/01/26 19:27:31;;;;;;;99.83;38.60;;;3.40;1.00;;;;;;4997456;28;20193;-65
2022/01/26 19:33:07;;;;;;;98.00;38.43;;;3.40;1.00;;;;;;4981593;28;20217;-65
2022/01/26 19:51:16;;;;;;;104.57;40.47;;;3.40;1.00;;;;;;4978549;28;20742;-66
2022/01/26 19:53:43;;;;;;;97.63;39.70;;;3.40;1.00;;;;;;4999647;28;20281;-64
2022/01/26 19:56:16;;;;;;;87.40;36.17;;;3.40;1.00;;;;;;4998376;28;20197;-65
2022/01/26 19:58:45;;;;;;;98.30;37.50;;;3.40;1.00;;;;;;4999523;28;20597;-65
2022/01/26 20:01:12;;;;;;;102.77;37.70;;;3.40;1.00;;;;;;4979717;28;20197;-65
2022/01/26 20:03:42;;;;;;;96.30;38.47;;;3.40;1.00;;;;;;4987335;28;20216;-66
2022/01/26 20:06:12;;;;;;;90.63;37.13;;;3.30;1.00;;;;;;4986646;28;20287;-66
2022/01/26 20:08:52;;;;;;;83.77;34.70;;;3.40;1.00;;;;;;4981901;28;20262;-66
2022/01/26 20:11:36;;;;;;;95.77;38.57;;;3.40;1.00;;;;;;4996976;28;20248;-66
2022/01/26 20:14:05;;;;;;;89.20;36.13;;;3.40;1.00;;;;;;4985883;28;20225;-66
2022/01/26 20:16:36;;;;;;;84.50;35.60;;;3.30;1.00;;;;;;4987831;28;20203;-66
2022/01/26 20:19:04;;;;;;;91.00;39.07;;;3.30;1.00;;;;;;4998294;28;20213;-66
2022/01/26 20:21:31;;;;;;;93.50;36.37;;;3.30;1.00;;;;;;4987470;28;20260;-66
2022/01/26 20:24:00;;;;;;;87.33;35.83;;;3.30;1.00;;;;;;4982346;28;20201;-66
2022/01/26 20:26:27;;;;;;;84.60;33.77;;;3.30;1.00;;;;;;5000823;28;20723;-67
2022/01/26 20:28:56;;;;;;;98.33;38.37;;;3.30;1.00;;;;;;4986831;28;20205;-66
2022/01/26 20:31:24;;;;;;;87.50;34.43;;;3.30;1.00;;;;;;4981236;28;20209;-66
2022/01/26 20:33:55;;;;;;;95.73;36.33;;;3.30;1.00;;;;;;4999515;28;20205;-67